Time;durP1;ratioP1;P1;durP2;ratioP2;P2;SDS_P1;SDS_P2;PMS_P1;PMS_P2;Temp;Humidity;BMP_temperature;BMP_pressure;BME280_temperature;BME280_humidity;BME280_pressure;Samples;Min_cycle;Max_cycle;Signal;HPM_P1;HPM_P2
2021/10/22 00:01:22;;;;;;;4.32;2.78;;;3.80;99.90;;;;;;4988905;28;20078;-76
2021/10/22 00:03:53;;;;;;;6.03;2.85;;;3.80;99.90;;;;;;4972882;28;20058;-77
2021/10/22 00:06:20;;;;;;;4.40;2.88;;;3.80;99.90;;;;;;4972997;28;20051;-77
2021/10/22 00:08:46;;;;;;;2.88;2.65;;;3.80;99.90;;;;;;4973942;28;20549;-77
2021/10/22 00:11:13;;;;;;;9.90;2.53;;;3.70;99.90;;;;;;4974157;28;20508;-78
2021/10/22 00:13:40;;;;;;;6.88;2.47;;;3.70;99.90;;;;;;4973678;28;20141;-77
2021/10/22 00:16:06;;;;;;;3.70;1.95;;;3.70;99.90;;;;;;4973742;28;20481;-77
2021/10/22 00:18:33;;;;;;;6.45;2.88;;;3.60;99.90;;;;;;4956824;28;20055;-77
2021/10/22 00:21:00;;;;;;;2.85;2.60;;;3.50;99.90;;;;;;4973989;28;20055;-77
2021/10/22 00:23:27;;;;;;;4.95;2.85;;;3.40;99.90;;;;;;4974040;28;20452;-77
2021/10/22 00:25:53;;;;;;;4.18;2.58;;;3.40;99.90;;;;;;4956613;28;20146;-77
2021/10/22 00:28:20;;;;;;;5.85;2.42;;;3.30;99.90;;;;;;4973629;28;20105;-77
2021/10/22 00:30:47;;;;;;;7.10;3.10;;;3.20;99.90;;;;;;4973792;28;20150;-77
2021/10/22 00:33:14;;;;;;;3.45;2.70;;;3.30;99.90;;;;;;4973588;28;20088;-77
2021/10/22 00:35:41;;;;;;;9.02;3.55;;;3.30;99.90;;;;;;4973799;28;20146;-77
2021/10/22 00:38:08;;;;;;;7.78;3.03;;;3.10;99.90;;;;;;4973772;28;20054;-77
2021/10/22 00:40:35;;;;;;;3.50;3.20;;;2.90;99.90;;;;;;4956515;28;20055;-77
2021/10/22 00:43:02;;;;;;;6.50;3.60;;;2.90;99.90;;;;;;4957125;28;20134;-77
2021/10/22 00:45:29;;;;;;;4.80;4.03;;;2.80;99.90;;;;;;4977441;28;20126;-77
2021/10/22 00:47:55;;;;;;;8.07;3.55;;;2.80;99.90;;;;;;4977236;28;20126;-77
2021/10/22 00:50:22;;;;;;;5.60;3.25;;;2.80;99.90;;;;;;4977222;28;20072;-77
2021/10/22 00:52:49;;;;;;;4.20;3.30;;;2.80;99.90;;;;;;4976005;28;20085;-77
2021/10/22 00:55:16;;;;;;;12.20;3.70;;;2.70;99.90;;;;;;4977159;28;20073;-77
2021/10/22 00:57:43;;;;;;;10.23;3.20;;;2.60;99.90;;;;;;4977133;28;20137;-77
2021/10/22 01:00:10;;;;;;;7.18;3.85;;;2.60;99.90;;;;;;4959795;28;20497;-77
2021/10/22 01:02:39;;;;;;;8.07;3.17;;;2.50;99.90;;;;;;4977128;28;20058;-77
2021/10/22 01:05:11;;;;;;;6.47;2.92;;;2.40;99.90;;;;;;4976819;28;20133;-77
2021/10/22 01:07:39;;;;;;;5.05;2.50;;;2.40;99.90;;;;;;4976796;28;20551;-77
2021/10/22 01:10:08;;;;;;;5.32;3.17;;;2.30;99.90;;;;;;4977093;28;20125;-77
2021/10/22 01:12:37;;;;;;;7.70;3.00;;;2.20;99.90;;;;;;4976883;28;20057;-77
2021/10/22 01:15:05;;;;;;;6.95;3.78;;;2.20;99.90;;;;;;4976772;28;20533;-77
2021/10/22 01:17:43;;;;;;;16.00;3.55;;;2.30;99.90;;;;;;4976605;28;20089;-77
2021/10/22 01:20:13;;;;;;;9.07;4.05;;;2.30;99.90;;;;;;4976561;28;20054;-77
2021/10/22 01:22:41;;;;;;;17.10;4.03;;;2.30;99.90;;;;;;4976936;28;20129;-77
2021/10/22 01:25:10;;;;;;;10.43;3.83;;;2.20;99.90;;;;;;4976776;28;20074;-77
2021/10/22 01:27:37;;;;;;;12.57;4.80;;;2.30;99.90;;;;;;4976586;28;20133;-77
2021/10/22 01:30:06;;;;;;;10.20;5.43;;;2.30;99.90;;;;;;4959369;28;20058;-77
2021/10/22 01:32:33;;;;;;;8.75;4.28;;;2.30;99.90;;;;;;4976591;28;20055;-77
2021/10/22 01:35:01;;;;;;;11.45;4.00;;;2.40;99.90;;;;;;4976400;28;20085;-77
2021/10/22 01:37:28;;;;;;;12.23;4.13;;;2.20;99.90;;;;;;4976307;28;20093;-77
2021/10/22 01:39:54;;;;;;;8.48;3.90;;;2.20;99.90;;;;;;4976299;28;20129;-77
2021/10/22 01:42:21;;;;;;;16.17;4.18;;;2.20;99.90;;;;;;4976336;28;20134;-77
2021/10/22 01:44:48;;;;;;;11.40;4.20;;;2.20;99.90;;;;;;4976201;28;20445;-77
2021/10/22 01:47:15;;;;;;;10.35;3.83;;;2.20;99.90;;;;;;4980255;28;20090;-78
2021/10/22 01:49:42;;;;;;;17.05;4.05;;;2.10;99.90;;;;;;4981286;28;20145;-78
2021/10/22 01:52:09;;;;;;;20.25;4.05;;;2.00;99.90;;;;;;4962914;28;20135;-78
2021/10/22 01:54:36;;;;;;;9.80;3.47;;;2.10;99.90;;;;;;4980239;28;20134;-78
2021/10/22 01:57:04;;;;;;;40.03;4.60;;;2.10;99.90;;;;;;4981097;28;20145;-78
2021/10/22 01:59:30;;;;;;;11.75;3.13;;;2.10;99.90;;;;;;4981060;28;20568;-78
2021/10/22 02:01:57;;;;;;;31.77;3.83;;;2.00;99.90;;;;;;4980533;28;20500;-78
2021/10/22 02:04:24;;;;;;;3.63;2.75;;;1.90;99.90;;;;;;4963384;28;20063;-78
2021/10/22 02:06:51;;;;;;;3.70;3.22;;;2.00;99.90;;;;;;4980585;28;20125;-78
2021/10/22 02:09:18;;;;;;;3.92;2.47;;;1.90;99.90;;;;;;4980470;28;20074;-78
2021/10/22 02:11:46;;;;;;;5.43;2.80;;;1.90;99.90;;;;;;4980065;28;20050;-78
2021/10/22 02:14:15;;;;;;;18.23;3.08;;;1.90;99.90;;;;;;4979925;28;20078;-78
2021/10/22 02:16:43;;;;;;;7.30;3.10;;;1.70;99.90;;;;;;4964001;28;20051;-78
2021/10/22 02:19:10;;;;;;;4.07;3.05;;;1.60;99.90;;;;;;4963363;28;20141;-78
2021/10/22 02:21:37;;;;;;;15.38;3.55;;;1.70;99.90;;;;;;4981206;28;20137;-78
2021/10/22 02:24:05;;;;;;;6.78;3.63;;;1.60;99.90;;;;;;4981097;28;20167;-78
2021/10/22 02:26:33;;;;;;;18.30;4.35;;;1.60;99.90;;;;;;4980654;28;20111;-78
2021/10/22 02:28:59;;;;;;;6.70;3.65;;;1.50;99.90;;;;;;4980931;28;20043;-78
2021/10/22 02:31:27;;;;;;;20.35;3.63;;;1.50;99.90;;;;;;4981015;28;20046;-78
2021/10/22 02:33:54;;;;;;;15.75;3.58;;;1.40;99.90;;;;;;4981579;28;20097;-78
2021/10/22 02:36:21;;;;;;;8.70;3.80;;;1.30;99.90;;;;;;4981281;28;20097;-79
2021/10/22 02:38:48;;;;;;;5.22;3.80;;;1.30;99.90;;;;;;4981382;28;20097;-78
2021/10/22 02:41:15;;;;;;;6.35;3.60;;;1.30;99.90;;;;;;4980520;28;20051;-78
2021/10/22 02:43:42;;;;;;;16.25;4.13;;;1.20;99.90;;;;;;4981533;28;20058;-78
2021/10/22 02:46:09;;;;;;;10.65;3.97;;;1.10;99.90;;;;;;4981575;28;20133;-78
2021/10/22 02:48:36;;;;;;;9.00;4.25;;;1.10;99.90;;;;;;4981685;28;20069;-78
2021/10/22 02:51:03;;;;;;;9.90;4.25;;;1.10;99.90;;;;;;4982036;28;20086;-78
2021/10/22 02:53:29;;;;;;;6.30;3.45;;;1.00;99.90;;;;;;4981288;28;20129;-78
2021/10/22 02:55:56;;;;;;;9.20;3.80;;;1.00;99.90;;;;;;4964065;28;20062;-78
2021/10/22 02:58:23;;;;;;;12.73;3.78;;;1.00;99.90;;;;;;4982159;28;20078;-79
2021/10/22 03:00:50;;;;;;;16.27;4.50;;;1.00;99.90;;;;;;4981912;28;20097;-78
2021/10/22 03:03:16;;;;;;;14.77;3.78;;;1.10;99.90;;;;;;4981691;28;20070;-78
2021/10/22 03:05:44;;;;;;;12.95;3.78;;;1.20;99.90;;;;;;4979991;28;20142;-78
2021/10/22 03:08:10;;;;;;;16.73;4.10;;;1.30;99.90;;;;;;4977761;28;20089;-78
2021/10/22 03:10:37;;;;;;;14.60;3.33;;;1.40;99.90;;;;;;4977829;28;20137;-79
2021/10/22 03:13:04;;;;;;;11.95;4.18;;;1.40;99.90;;;;;;4959794;28;20070;-78
2021/10/22 03:15:30;;;;;;;14.45;5.40;;;1.40;99.90;;;;;;4976373;28;20086;-78
2021/10/22 03:17:57;;;;;;;15.27;4.85;;;1.40;99.90;;;;;;4960576;28;20142;-79
2021/10/22 03:20:25;;;;;;;9.57;4.13;;;1.40;99.90;;;;;;4961048;28;20511;-78
2021/10/22 03:22:51;;;;;;;9.32;4.15;;;1.30;99.90;;;;;;4960268;28;20558;-78
2021/10/22 03:25:18;;;;;;;11.30;3.78;;;1.30;99.90;;;;;;4960875;28;20114;-78
2021/10/22 03:27:47;;;;;;;9.27;3.28;;;1.20;99.90;;;;;;4978161;28;20540;-78
2021/10/22 03:30:15;;;;;;;10.32;3.45;;;1.00;99.90;;;;;;4960532;28;20484;-79
2021/10/22 03:32:42;;;;;;;13.68;4.32;;;1.00;99.90;;;;;;4977485;28;20137;-78
2021/10/22 03:35:10;;;;;;;18.85;4.40;;;1.00;99.90;;;;;;4976544;28;20050;-78
2021/10/22 03:37:37;;;;;;;8.88;3.13;;;1.00;99.90;;;;;;4976827;28;20397;-78
2021/10/22 03:40:05;;;;;;;9.98;3.92;;;0.90;99.90;;;;;;4976640;28;20078;-77
2021/10/22 03:42:31;;;;;;;10.57;3.78;;;0.90;99.90;;;;;;4976800;28;20051;-78
2021/10/22 03:44:58;;;;;;;10.35;4.10;;;0.90;99.90;;;;;;4976624;28;20492;-78
2021/10/22 03:47:25;;;;;;;19.65;5.93;;;0.90;99.90;;;;;;4976312;28;20074;-78
2021/10/22 03:49:52;;;;;;;16.08;7.45;;;0.90;99.90;;;;;;4976443;28;20111;-78
2021/10/22 03:52:19;;;;;;;15.50;6.35;;;0.90;99.90;;;;;;4958023;28;20141;-77
2021/10/22 03:54:46;;;;;;;16.02;6.70;;;0.90;99.90;;;;;;4974017;28;20134;-77
2021/10/22 03:57:12;;;;;;;14.75;5.05;;;0.90;99.90;;;;;;4973951;28;20090;-77
2021/10/22 03:59:39;;;;;;;10.00;4.15;;;1.00;99.90;;;;;;4956837;28;20145;-77
2021/10/22 04:02:06;;;;;;;12.05;4.82;;;1.00;99.90;;;;;;4974053;28;20134;-77
2021/10/22 04:04:34;;;;;;;14.35;4.90;;;1.10;99.90;;;;;;4974028;28;20057;-77
2021/10/22 04:07:02;;;;;;;15.85;5.53;;;1.20;99.90;;;;;;4973780;28;20051;-77
2021/10/22 04:09:31;;;;;;;19.77;6.70;;;1.30;99.90;;;;;;4973882;28;20138;-76
2021/10/22 04:11:59;;;;;;;15.93;5.72;;;1.40;99.90;;;;;;4956743;28;20460;-77
2021/10/22 04:14:26;;;;;;;22.10;5.85;;;1.40;99.90;;;;;;4966045;28;20054;-77
2021/10/22 04:16:56;;;;;;;19.88;6.05;;;1.50;99.90;;;;;;4973835;28;20569;-77
2021/10/22 04:19:24;;;;;;;16.40;6.28;;;1.50;99.90;;;;;;4976640;28;20508;-77
2021/10/22 04:21:51;;;;;;;19.38;6.10;;;1.50;99.90;;;;;;4976559;28;20544;-77
2021/10/22 04:24:18;;;;;;;23.65;6.15;;;1.50;99.90;;;;;;4977979;28;20142;-77
2021/10/22 04:29:51;;;;;;;13.68;5.15;;;1.40;99.90;;;;;;5370859;22;20088;-88
2021/10/22 04:32:18;;;;;;;16.83;5.55;;;1.30;99.90;;;;;;5039299;28;20586;-88
2021/10/22 04:34:45;;;;;;;16.33;4.88;;;1.30;99.90;;;;;;5039376;28;20423;-88
2021/10/22 04:37:32;;;;;;;21.65;5.90;;;1.20;99.90;;;;;;5039350;28;20516;-88
2021/10/22 04:42:49;;;;;;;18.10;5.30;;;1.00;99.90;;;;;;5056777;28;20049;-88
2021/10/22 04:45:18;;;;;;;9.30;4.57;;;0.90;99.90;;;;;;5056533;28;20059;-88
2021/10/22 04:47:45;;;;;;;17.40;4.40;;;0.90;99.90;;;;;;5039064;28;20141;-89
2021/10/22 04:50:12;;;;;;;14.38;4.85;;;0.80;99.90;;;;;;5039126;28;20049;-88
2021/10/22 04:52:39;;;;;;;11.80;4.10;;;0.80;99.90;;;;;;5056617;28;20508;-88
2021/10/22 04:55:08;;;;;;;14.20;4.60;;;0.80;99.90;;;;;;5055394;28;20401;-88
2021/10/22 04:57:35;;;;;;;15.95;5.68;;;0.80;99.90;;;;;;5056544;28;20049;-89
2021/10/22 05:00:07;;;;;;;16.75;7.88;;;0.80;99.90;;;;;;5038923;28;20049;-88
2021/10/22 05:02:35;;;;;;;21.45;5.70;;;0.90;99.90;;;;;;5056442;28;20493;-88
2021/10/22 05:05:02;;;;;;;13.25;4.88;;;0.90;99.90;;;;;;5038950;28;20084;-89
2021/10/22 05:07:29;;;;;;;15.55;5.88;;;1.00;99.90;;;;;;5038582;28;20048;-88
2021/10/22 05:09:56;;;;;;;22.98;7.78;;;1.00;99.90;;;;;;5038790;28;20045;-88
2021/10/22 05:12:24;;;;;;;16.48;6.28;;;1.10;99.90;;;;;;5039048;28;20416;-89
2021/10/22 05:14:56;;;;;;;22.52;6.07;;;1.10;99.90;;;;;;5056343;28;20048;-88
2021/10/22 05:17:23;;;;;;;18.65;5.75;;;1.10;99.90;;;;;;5038768;28;20055;-89
2021/10/22 05:19:49;;;;;;;14.73;6.28;;;1.10;99.90;;;;;;5038371;28;20507;-88
2021/10/22 05:22:16;;;;;;;16.92;5.95;;;1.10;99.90;;;;;;5055911;28;20076;-89
2021/10/22 05:24:43;;;;;;;20.50;6.10;;;1.20;99.90;;;;;;5038499;28;20049;-89
2021/10/22 05:27:10;;;;;;;15.40;5.40;;;1.20;99.90;;;;;;5055865;28;20048;-88
2021/10/22 05:29:36;;;;;;;19.83;6.53;;;1.30;99.90;;;;;;5055229;28;20055;-90
2021/10/22 05:32:04;;;;;;;28.50;8.05;;;1.30;99.90;;;;;;5055750;28;20049;-90
2021/10/22 05:34:31;;;;;;;19.60;7.05;;;1.30;99.90;;;;;;5055830;28;20047;-88
2021/10/22 05:36:58;;;;;;;20.08;7.40;;;1.30;99.90;;;;;;5055804;28;20135;-89
2021/10/22 05:39:25;;;;;;;14.88;6.75;;;1.30;99.90;;;;;;5038102;28;20087;-88
2021/10/22 05:41:52;;;;;;;14.57;6.00;;;1.40;99.90;;;;;;5038220;28;20045;-89
2021/10/22 05:44:19;;;;;;;19.35;6.10;;;1.40;99.90;;;;;;5038072;28;20053;-87
2021/10/22 05:46:47;;;;;;;21.17;6.40;;;1.40;99.90;;;;;;5037504;28;20053;-88
2021/10/22 05:49:15;;;;;;;20.23;7.07;;;1.40;99.90;;;;;;5055350;28;20048;-90
2021/10/22 05:51:42;;;;;;;19.48;7.03;;;1.40;99.90;;;;;;5037748;28;20109;-89
2021/10/22 05:54:09;;;;;;;14.38;6.70;;;1.50;99.90;;;;;;5037931;28;20136;-89
2021/10/22 05:56:36;;;;;;;16.05;6.18;;;1.50;99.90;;;;;;5037568;28;20088;-88
2021/10/22 05:59:02;;;;;;;18.73;6.55;;;1.50;99.90;;;;;;5037585;28;20139;-89
2021/10/22 06:01:29;;;;;;;23.23;6.18;;;1.50;99.90;;;;;;5037444;28;20135;-88
2021/10/22 06:03:56;;;;;;;19.20;5.38;;;1.50;99.90;;;;;;5055245;28;20556;-89
2021/10/22 06:06:24;;;;;;;22.88;6.47;;;1.50;99.90;;;;;;5037316;28;20139;-88
2021/10/22 06:08:51;;;;;;;18.30;6.07;;;1.60;99.90;;;;;;5037830;28;20045;-88
2021/10/22 06:11:18;;;;;;;21.98;6.20;;;1.60;99.90;;;;;;5037595;28;20052;-88
2021/10/22 06:13:45;;;;;;;17.63;6.45;;;1.70;99.90;;;;;;5037610;28;20095;-88
2021/10/22 06:16:13;;;;;;;25.13;7.82;;;1.80;99.90;;;;;;5037138;28;20049;-90
2021/10/22 06:18:46;;;;;;;21.50;6.93;;;1.80;99.90;;;;;;5037633;28;20057;-89
2021/10/22 06:21:22;;;;;;;20.07;6.10;;;2.00;99.90;;;;;;5037662;28;20048;-89
2021/10/22 06:23:54;;;;;;;14.77;7.03;;;2.10;99.90;;;;;;5037364;28;20366;-90
2021/10/22 06:26:23;;;;;;;21.33;7.15;;;2.50;99.90;;;;;;5037208;28;20132;-87
2021/10/22 06:28:51;;;;;;;27.63;9.27;;;2.80;99.90;;;;;;5054478;28;20060;-88
2021/10/22 06:31:18;;;;;;;21.02;8.05;;;3.00;99.90;;;;;;5055024;28;20140;-88
2021/10/22 06:33:45;;;;;;;21.65;7.07;;;3.10;99.90;;;;;;5055534;28;20057;-89
2021/10/22 06:36:12;;;;;;;29.27;8.15;;;3.20;99.90;;;;;;5037188;28;20581;-85
2021/10/22 06:38:40;;;;;;;22.27;7.20;;;3.40;99.90;;;;;;5054757;28;20056;-87
2021/10/22 06:41:10;;;;;;;26.45;7.75;;;3.40;99.90;;;;;;5053733;28;20132;-88
2021/10/22 06:43:38;;;;;;;22.05;7.85;;;3.50;99.90;;;;;;5037263;28;20143;-91
2021/10/22 06:46:07;;;;;;;23.48;6.47;;;3.50;99.90;;;;;;5037047;28;20091;-88
2021/10/22 06:48:35;;;;;;;22.23;7.22;;;3.70;99.90;;;;;;5037140;28;20045;-88
2021/10/22 06:51:03;;;;;;;22.30;8.25;;;3.80;99.90;;;;;;5054092;28;20049;-87
2021/10/22 06:53:31;;;;;;;21.15;8.07;;;3.90;99.90;;;;;;5036638;28;20128;-87
2021/10/22 06:55:58;;;;;;;26.58;9.25;;;4.10;99.90;;;;;;5053884;28;20061;-86
2021/10/22 06:58:25;;;;;;;26.00;9.07;;;4.30;99.90;;;;;;5053200;28;20504;-88
2021/10/22 07:00:52;;;;;;;21.90;10.52;;;4.50;99.90;;;;;;5054270;28;20555;-88
2021/10/22 07:03:23;;;;;;;19.92;8.45;;;4.60;99.90;;;;;;5036633;28;20052;-89
2021/10/22 07:06:03;;;;;;;28.85;10.30;;;4.60;99.90;;;;;;5036271;28;20052;-88
2021/10/22 07:08:30;;;;;;;28.70;9.48;;;4.60;99.90;;;;;;5036741;28;20412;-88
2021/10/22 07:10:57;;;;;;;23.25;9.65;;;4.80;99.90;;;;;;5036436;28;20440;-88
2021/10/22 07:13:24;;;;;;;22.58;8.65;;;4.80;99.90;;;;;;5036681;28;20405;-87
2021/10/22 07:15:50;;;;;;;16.88;8.90;;;4.90;99.90;;;;;;5052916;28;20123;-89
2021/10/22 07:18:17;;;;;;;19.98;7.78;;;5.00;99.90;;;;;;5036328;28;20103;-87
2021/10/22 07:20:44;;;;;;;24.10;9.00;;;5.00;99.90;;;;;;5036387;28;20047;-88
2021/10/22 07:23:11;;;;;;;18.67;7.57;;;5.00;99.90;;;;;;5052346;28;20053;-90
2021/10/22 07:25:41;;;;;;;22.05;7.57;;;5.10;99.90;;;;;;5035967;28;20127;-88
2021/10/22 07:28:15;;;;;;;13.27;4.15;;;5.10;99.90;;;;;;5036010;28;20065;-87
2021/10/22 07:30:45;;;;;;;12.38;3.28;;;5.10;99.90;;;;;;5053792;28;20445;-88
2021/10/22 07:33:14;;;;;;;19.67;3.65;;;5.10;99.90;;;;;;5053293;28;20053;-88
2021/10/22 07:35:41;;;;;;;18.17;4.38;;;5.10;99.90;;;;;;5052794;28;20049;-88
2021/10/22 07:38:12;;;;;;;15.93;3.50;;;5.10;99.90;;;;;;5036247;28;20049;-88
2021/10/22 07:40:45;;;;;;;11.98;3.33;;;5.10;99.90;;;;;;5053766;28;20052;-88
2021/10/22 07:43:12;;;;;;;14.55;3.25;;;5.20;99.90;;;;;;5036142;28;20053;-89
2021/10/22 07:45:41;;;;;;;13.65;3.08;;;5.20;99.90;;;;;;5052482;28;20063;-88
2021/10/22 07:48:08;;;;;;;13.82;2.80;;;5.30;99.90;;;;;;5035887;28;20049;-89
2021/10/22 07:50:35;;;;;;;10.93;2.65;;;5.50;99.90;;;;;;5035852;28;20051;-87
2021/10/22 07:53:02;;;;;;;12.40;2.70;;;5.90;99.90;;;;;;5035971;28;20135;-88
2021/10/22 07:55:29;;;;;;;11.07;3.00;;;6.50;99.90;;;;;;5036379;28;20041;-88
2021/10/22 07:57:56;;;;;;;10.57;2.38;;;7.00;99.90;;;;;;5036181;28;20160;-90
2021/10/22 08:00:23;;;;;;;7.00;2.83;;;7.30;99.90;;;;;;5054954;28;20143;-90
2021/10/22 08:02:50;;;;;;;6.50;1.77;;;7.70;99.90;;;;;;5055178;28;20478;-94
2021/10/22 08:05:17;;;;;;;8.32;1.55;;;8.10;99.90;;;;;;5035766;28;20049;-87
2021/10/22 08:07:43;;;;;;;8.57;2.42;;;8.40;99.90;;;;;;5053986;28;20499;-91
2021/10/22 08:10:10;;;;;;;8.70;1.52;;;8.80;99.90;;;;;;5053351;28;20132;-91
2021/10/22 08:12:37;;;;;;;7.53;1.48;;;9.00;99.90;;;;;;5054027;28;20059;-94
2021/10/22 08:15:05;;;;;;;10.00;2.38;;;9.00;99.90;;;;;;5037402;28;20489;-88
2021/10/22 08:17:32;;;;;;;7.65;1.65;;;9.20;99.90;;;;;;5036081;28;20052;-90
2021/10/22 08:20:04;;;;;;;7.13;1.23;;;9.30;99.90;;;;;;5037149;28;20045;-89
2021/10/22 08:22:32;;;;;;;7.28;1.38;;;9.90;99.90;;;;;;5037371;28;20049;-91
2021/10/22 08:25:12;;;;;;;4.32;1.13;;;10.20;99.90;;;;;;5036572;28;20128;-89
2021/10/22 08:27:42;;;;;;;10.93;1.80;;;10.60;99.90;;;;;;5035542;28;20053;-89
2021/10/22 08:30:13;;;;;;;7.43;2.03;;;10.30;99.90;;;;;;5032287;28;20050;-88
2021/10/22 08:32:40;;;;;;;8.10;1.83;;;10.10;99.90;;;;;;5050355;28;20096;-90
2021/10/22 08:35:08;;;;;;;14.95;2.85;;;9.90;99.90;;;;;;5033507;28;20052;-90
2021/10/22 08:37:39;;;;;;;9.93;2.13;;;9.90;99.90;;;;;;5033524;28;20116;-91
2021/10/22 08:40:07;;;;;;;8.23;1.67;;;10.00;99.90;;;;;;5035223;28;20050;-87
2021/10/22 08:42:34;;;;;;;6.65;1.40;;;10.10;99.90;;;;;;5037939;28;20072;-95
2021/10/22 08:45:02;;;;;;;8.40;1.45;;;10.10;99.90;;;;;;5035406;28;20042;-92
2021/10/22 08:47:30;;;;;;;5.95;1.30;;;10.20;99.90;;;;;;5050685;28;20471;-93
2021/10/22 08:50:01;;;;;;;16.17;2.38;;;10.70;99.90;;;;;;5033020;28;20113;-91
2021/10/22 08:52:30;;;;;;;5.10;1.30;;;10.60;99.90;;;;;;5033386;28;20107;-92
2021/10/22 08:54:58;;;;;;;5.82;1.63;;;10.40;99.90;;;;;;5035479;28;20136;-91
2021/10/22 08:57:25;;;;;;;7.95;1.52;;;10.90;99.90;;;;;;5033131;28;20054;-90
2021/10/22 08:59:57;;;;;;;8.40;1.23;;;10.70;99.90;;;;;;5033667;28;20051;-93
2021/10/22 09:02:28;;;;;;;10.88;2.03;;;10.70;99.90;;;;;;5034456;28;20176;-94
2021/10/22 09:04:59;;;;;;;7.72;1.77;;;10.70;99.90;;;;;;5035969;28;20494;-90
2021/10/22 09:07:50;;;;;;;6.88;1.65;;;10.70;99.90;;;;;;5037768;28;20195;-89
2021/10/22 09:10:27;;;;;;;5.93;1.50;;;10.50;99.90;;;;;;5038063;28;20493;-94
2021/10/22 09:12:56;;;;;;;10.55;1.98;;;10.90;99.90;;;;;;5037345;28;20057;-94
2021/10/22 09:15:32;;;;;;;9.65;2.20;;;11.50;99.90;;;;;;5038780;28;20144;-87
2021/10/22 09:18:07;;;;;;;6.65;1.30;;;11.40;99.90;;;;;;5036707;28;20486;-89
2021/10/22 09:20:51;;;;;;;7.43;1.85;;;12.50;99.90;;;;;;5037330;28;20490;-92
2021/10/22 09:23:33;;;;;;;6.05;1.75;;;12.90;99.90;;;;;;5037181;28;20056;-91
2021/10/22 09:26:14;;;;;;;7.32;1.75;;;14.00;99.90;;;;;;5038026;28;20494;-88
2021/10/22 09:28:41;;;;;;;4.22;1.45;;;14.80;97.20;;;;;;5036312;28;20053;-92
2021/10/22 09:31:10;;;;;;;7.40;1.90;;;13.80;98.40;;;;;;5038353;28;20477;-93
2021/10/22 09:33:55;;;;;;;7.43;1.83;;;12.90;99.90;;;;;;5037475;28;20103;-93
2021/10/22 09:36:41;;;;;;;5.50;1.73;;;13.60;99.90;;;;;;5038257;28;20112;-93
2021/10/22 09:39:15;;;;;;;6.35;1.65;;;14.60;99.90;;;;;;5037847;28;20050;-95
2021/10/22 09:41:52;;;;;;;87.30;5.07;;;14.90;94.80;;;;;;5038309;28;20477;-91
2021/10/22 09:44:26;;;;;;;8.90;1.88;;;13.90;94.10;;;;;;5036455;28;20049;-90
2021/10/22 09:47:05;;;;;;;3.88;1.30;;;14.20;95.50;;;;;;5036740;28;20113;-95
2021/10/22 09:49:38;;;;;;;10.63;1.70;;;15.30;93.20;;;;;;5036263;28;20498;-90
2021/10/22 09:52:23;;;;;;;6.93;1.75;;;14.90;91.30;;;;;;5036119;28;20136;-90
2021/10/22 09:55:14;;;;;;;4.40;1.30;;;14.60;91.70;;;;;;5036502;28;20053;-95
2021/10/22 09:57:43;;;;;;;6.45;1.20;;;13.40;93.80;;;;;;5036406;28;20140;-91
2021/10/22 10:00:20;;;;;;;7.00;1.17;;;13.20;94.50;;;;;;5037905;28;20128;-94
2021/10/22 10:02:46;;;;;;;5.20;1.45;;;13.00;95.80;;;;;;5037479;28;20064;-95
2021/10/22 10:05:14;;;;;;;7.72;1.50;;;13.40;94.50;;;;;;5036493;28;20107;-93
2021/10/22 10:07:46;;;;;;;8.70;1.88;;;13.60;92.90;;;;;;5036489;28;20049;-93
2021/10/22 10:10:14;;;;;;;8.00;1.88;;;13.80;91.40;;;;;;5037196;28;20051;-95
2021/10/22 10:12:41;;;;;;;5.78;1.30;;;14.00;92.00;;;;;;5040565;28;20441;-94
2021/10/22 10:15:10;;;;;;;6.10;1.30;;;14.90;92.70;;;;;;5039797;28;20049;-93
2021/10/22 10:17:46;;;;;;;7.82;1.75;;;14.40;91.10;;;;;;5037932;28;20073;-95
2021/10/22 10:20:28;;;;;;;10.55;1.60;;;14.40;91.90;;;;;;5036479;28;20506;-94
2021/10/22 10:23:09;;;;;;;4.35;1.63;;;14.40;90.80;;;;;;5037749;28;20132;-95
2021/10/22 10:25:37;;;;;;;5.55;1.67;;;14.90;88.10;;;;;;5035427;28;20045;-85
2021/10/22 10:28:06;;;;;;;6.30;1.45;;;15.10;89.20;;;;;;5038221;28;20117;-91
2021/10/22 10:30:35;;;;;;;9.60;1.33;;;13.90;90.10;;;;;;5037461;28;20136;-94
2021/10/22 10:33:04;;;;;;;7.03;1.30;;;12.70;91.60;;;;;;5035574;28;20084;-94
2021/10/22 10:35:36;;;;;;;7.97;1.77;;;12.40;94.50;;;;;;5040288;28;20065;-90
2021/10/22 10:38:07;;;;;;;5.90;1.48;;;12.80;93.80;;;;;;5038946;28;20140;-95
2021/10/22 10:40:37;;;;;;;5.47;1.35;;;13.50;92.50;;;;;;5041671;28;20053;-94
2021/10/22 10:43:19;;;;;;;14.65;1.67;;;15.10;92.50;;;;;;5038297;28;20080;-92
2021/10/22 10:45:47;;;;;;;6.95;1.30;;;16.00;90.60;;;;;;5039837;28;20047;-95
2021/10/22 10:48:18;;;;;;;5.43;1.55;;;17.10;85.90;;;;;;5036018;28;20087;-90
2021/10/22 10:50:54;;;;;;;5.07;1.35;;;17.30;81.00;;;;;;5038438;28;20049;-92
2021/10/22 10:53:47;;;;;;;6.38;1.50;;;17.60;79.70;;;;;;5036609;28;20057;-95
2021/10/22 10:56:23;;;;;;;6.30;1.25;;;17.00;80.70;;;;;;5030404;28;20490;-94
2021/10/22 10:58:50;;;;;;;7.70;1.50;;;17.30;81.30;;;;;;5035779;28;20406;-92
2021/10/22 11:01:34;;;;;;;7.70;1.42;;;17.20;81.00;;;;;;5035263;28;20192;-92
2021/10/22 11:04:03;;;;;;;12.15;1.80;;;16.30;82.00;;;;;;5034877;28;20414;-94
2021/10/22 11:06:39;;;;;;;6.35;1.73;;;14.90;85.90;;;;;;5033562;28;20046;-89
2021/10/22 11:09:07;;;;;;;7.38;2.40;;;13.50;89.60;;;;;;5034151;28;20055;-87
2021/10/22 11:11:35;;;;;;;9.43;2.13;;;12.40;91.80;;;;;;5036144;28;20049;-94
2021/10/22 11:14:05;;;;;;;8.27;1.60;;;11.60;94.10;;;;;;5036776;28;20049;-94
2021/10/22 11:16:38;;;;;;;4.85;1.30;;;11.10;96.90;;;;;;5053008;23;20464;-85
2021/10/22 11:19:14;;;;;;;6.25;1.85;;;11.10;99.20;;;;;;5056527;28;20048;-85
2021/10/22 11:21:47;;;;;;;7.47;1.92;;;10.90;99.90;;;;;;5055315;28;20815;-86
2021/10/22 11:24:17;;;;;;;5.53;1.57;;;10.80;99.90;;;;;;5055255;28;20072;-86
2021/10/22 11:26:53;;;;;;;6.57;1.88;;;11.30;99.90;;;;;;5054815;28;20391;-85
2021/10/22 11:29:22;;;;;;;10.85;1.65;;;11.60;99.90;;;;;;5054826;28;20081;-85
2021/10/22 11:31:56;;;;;;;7.88;1.30;;;12.30;99.90;;;;;;5056264;28;20087;-85
2021/10/22 11:34:37;;;;;;;6.65;1.90;;;14.30;97.40;;;;;;5056113;28;20056;-85
2021/10/22 11:37:09;;;;;;;9.32;1.73;;;15.40;94.00;;;;;;5054803;28;20073;-85
2021/10/22 11:50:21;;;;;;;4.38;1.33;;;15.50;88.80;;;;;;5722366;23;20106;-87
2021/10/22 11:53:04;;;;;;;4.82;1.45;;;16.40;85.70;;;;;;5016002;28;20127;-91
2021/10/22 11:55:32;;;;;;;6.03;1.65;;;15.60;84.60;;;;;;5015830;28;20136;-93
2021/10/22 11:58:09;;;;;;;4.70;1.20;;;15.80;87.50;;;;;;5035269;28;20080;-92
2021/10/22 12:00:46;;;;;;;6.13;1.52;;;15.80;87.60;;;;;;5018082;28;20045;-91
2021/10/22 12:03:13;;;;;;;5.43;1.27;;;15.90;86.60;;;;;;5018546;28;20081;-89
2021/10/22 12:05:42;;;;;;;3.22;1.13;;;15.50;84.00;;;;;;5019891;28;20053;-96
2021/10/22 12:08:18;;;;;;;9.90;2.72;;;15.10;85.90;;;;;;5017252;28;20120;-92
2021/10/22 12:10:58;;;;;;;7.90;1.27;;;14.40;88.10;;;;;;5017969;28;20069;-94
2021/10/22 12:13:38;;;;;;;6.97;1.23;;;14.30;90.50;;;;;;5017342;28;20049;-89
2021/10/22 12:16:15;;;;;;;6.45;1.30;;;13.80;90.20;;;;;;5016317;28;20069;-91
2021/10/22 12:18:52;;;;;;;6.55;1.55;;;13.40;93.20;;;;;;5017224;28;20049;-94
2021/10/22 12:21:29;;;;;;;4.65;1.50;;;13.60;93.80;;;;;;5016467;28;20065;-89
2021/10/22 12:24:13;;;;;;;6.13;1.33;;;13.60;92.00;;;;;;5016773;28;20552;-92
2021/10/22 12:26:40;;;;;;;;;;;13.50;92.40;;;;;;5018240;28;20046;-92
2021/10/22 12:29:14;;;;;;;5.40;1.42;;;13.40;91.80;;;;;;5018363;28;19921;-93
2021/10/22 12:31:52;;;;;;;7.88;1.70;;;13.40;91.90;;;;;;5016377;28;20041;-92
2021/10/22 12:34:33;;;;;;;11.75;1.95;;;13.20;92.90;;;;;;5019096;28;20049;-91
2021/10/22 12:37:09;;;;;;;6.53;1.48;;;13.40;92.80;;;;;;5034857;28;20129;-93
2021/10/22 12:39:41;;;;;;;7.50;1.40;;;13.30;93.40;;;;;;5020848;28;20136;-96
2021/10/22 12:42:29;;;;;;;7.10;1.70;;;13.20;92.70;;;;;;5019988;28;20551;-94
2021/10/22 12:45:18;;;;;;;5.40;1.15;;;13.10;93.40;;;;;;5019742;28;20053;-90
2021/10/22 12:47:47;;;;;;;5.05;1.48;;;12.80;93.40;;;;;;5019911;28;20033;-88
2021/10/22 12:50:17;;;;;;;17.42;1.58;;;12.60;93.80;;;;;;5025606;28;20153;-90
2021/10/22 12:53:15;;;;;;;7.55;1.30;;;12.30;94.60;;;;;;5036254;28;20055;-92
2021/10/22 12:55:43;;;;;;;7.22;1.80;;;12.30;95.30;;;;;;5035754;28;20053;-91
2021/10/22 12:58:21;;;;;;;5.47;1.38;;;12.20;93.40;;;;;;5036311;28;20490;-88
2021/10/22 13:01:07;;;;;;;7.57;1.40;;;12.00;94.80;;;;;;5036116;28;20054;-89
2021/10/22 13:03:35;;;;;;;7.68;1.60;;;12.00;94.60;;;;;;5035551;28;20508;-84
2021/10/22 13:06:13;;;;;;;8.82;1.80;;;11.90;94.70;;;;;;5036466;28;20050;-90
2021/10/22 13:08:54;;;;;;;6.30;1.38;;;11.60;94.80;;;;;;5036494;28;20160;-93
2021/10/22 13:11:29;;;;;;;6.05;1.30;;;11.50;95.30;;;;;;5036691;28;20144;-90
2021/10/22 13:22:04;;;;;;;5.28;1.60;;;11.40;96.20;;;;;;5037232;28;20045;-94
2021/10/22 13:24:30;;;;;;;5.72;1.27;;;11.40;96.30;;;;;;5035348;28;20060;-90
2021/10/22 13:26:58;;;;;;;6.28;1.38;;;11.50;96.70;;;;;;5035095;28;20554;-92